Time;durP1;ratioP1;P1;durP2;ratioP2;P2;SDS_P1;SDS_P2;PMS_P1;PMS_P2;Temp;Humidity;BMP_temperature;BMP_pressure;BME280_temperature;BME280_humidity;BME280_pressure;Samples;Min_cycle;Max_cycle;Signal;HPM_P1;HPM_P2
2024/01/14 00:02:08;;;;;;;;;67.33;52.33;;;;;1.16;67.49;101377.91;5116493;27;52913;-79
2024/01/14 00:04:34;;;;;;;;;69.00;52.33;;;;;0.96;67.29;101369.28;5117651;27;45293;-79
2024/01/14 00:06:59;;;;;;;;;70.33;51.67;;;;;0.88;68.15;101367.56;5117687;27;45392;-79
2024/01/14 00:09:25;;;;;;;;;64.75;52.00;;;;;0.94;67.68;101357.97;5116922;27;45419;-80
2024/01/14 00:11:50;;;;;;;;;57.75;47.00;;;;;0.84;68.10;101344.03;5117054;27;45416;-81
2024/01/14 00:14:15;;;;;;;;;75.33;53.00;;;;;0.85;68.09;101348.38;5116651;27;49566;-80
2024/01/14 00:16:40;;;;;;;;;65.75;49.50;;;;;0.91;67.98;101340.50;5117043;27;45515;-79
2024/01/14 00:19:07;;;;;;;;;60.67;48.33;;;;;1.01;68.36;101336.09;5116908;27;45988;-80
2024/01/14 00:21:32;;;;;;;;;66.33;52.00;;;;;1.08;67.48;101336.06;5117192;27;45962;-79
2024/01/14 00:23:58;;;;;;;;;72.75;50.75;;;;;1.13;67.09;101346.50;5117181;27;45351;-79
2024/01/14 00:26:25;;;;;;;;;61.00;50.67;;;;;1.17;66.88;101328.16;5117054;27;45569;-80
2024/01/14 00:28:54;;;;;;;;;68.33;52.33;;;;;1.11;67.39;101319.44;5116888;27;47087;-80
2024/01/14 00:31:19;;;;;;;;;68.33;47.33;;;;;1.07;66.92;101310.75;5098366;27;45419;-79
2024/01/14 00:33:45;;;;;;;;;63.50;50.25;;;;;0.96;66.94;101295.97;5116628;27;45472;-80
2024/01/14 00:36:10;;;;;;;;;75.00;51.00;;;;;0.99;66.73;101307.28;5116807;27;45416;-80
2024/01/14 00:38:35;;;;;;;;;70.33;51.33;;;;;0.99;67.34;101302.03;5116798;27;46509;-80
2024/01/14 00:41:01;;;;;;;;;59.67;50.00;;;;;1.06;67.04;101309.00;5116979;27;45359;-81
2024/01/14 00:43:27;;;;;;;;;64.50;49.25;;;;;1.13;66.90;101304.59;5116810;27;45828;-79
2024/01/14 00:45:52;;;;;;;;;57.00;42.33;;;;;1.14;67.06;101290.59;5101862;27;45332;-79
2024/01/14 00:48:18;;;;;;;;;67.00;46.00;;;;;1.14;67.51;101286.22;5120093;27;45382;-81
2024/01/14 00:50:43;;;;;;;;;54.50;45.75;;;;;1.10;67.26;101278.41;5119952;27;45259;-79
2024/01/14 00:53:08;;;;;;;;;67.50;47.50;;;;;1.12;67.31;101281.88;5121281;27;56312;-78
2024/01/14 00:55:34;;;;;;;;;38.67;32.67;;;;;1.03;67.59;101269.72;5121712;27;45600;-79
2024/01/14 00:58:00;;;;;;;;;59.25;44.75;;;;;1.04;67.87;101263.63;5120320;27;45468;-80
2024/01/14 01:00:26;;;;;;;;;62.75;48.00;;;;;1.03;67.91;101266.22;5119856;27;45358;-79
2024/01/14 01:02:52;;;;;;;;;58.00;50.50;;;;;0.94;67.83;101255.81;5120058;27;45444;-79
2024/01/14 01:05:18;;;;;;;;;66.50;47.50;;;;;0.91;68.33;101261.06;5120232;27;45527;-81
2024/01/14 01:07:45;;;;;;;;;69.50;45.50;;;;;0.61;68.31;101255.13;5119279;27;46030;-80
2024/01/14 01:10:10;;;;;;;;;50.75;44.00;;;;;0.52;68.89;101256.03;5129781;27;45423;-81
2024/01/14 01:12:35;;;;;;;;;60.75;43.00;;;;;0.38;69.56;101249.97;5123778;27;45371;-80
2024/01/14 01:15:01;;;;;;;;;56.00;44.25;;;;;0.37;69.44;101250.84;5122871;27;45495;-80
2024/01/14 01:17:26;;;;;;;;;54.50;43.50;;;;;0.45;69.83;101256.06;5119565;27;45369;-78
2024/01/14 01:19:51;;;;;;;;;55.50;40.50;;;;;0.50;69.75;101254.28;5118960;27;64825;-81
2024/01/14 01:22:17;;;;;;;;;54.00;43.67;;;;;0.55;69.66;101253.41;5119077;27;45530;-78
2024/01/14 01:24:43;;;;;;;;;62.00;44.25;;;;;0.66;69.17;101268.19;5122417;27;45555;-79
2024/01/14 01:27:09;;;;;;;;;58.00;47.25;;;;;0.61;69.58;101252.50;5118351;27;45492;-79
2024/01/14 01:29:34;;;;;;;;;59.50;46.25;;;;;0.56;69.96;101260.38;5133965;27;45603;-80
2024/01/14 01:32:00;;;;;;;;;59.50;44.75;;;;;0.58;70.27;101269.09;5121443;27;45591;-78
2024/01/14 01:34:25;;;;;;;;;66.75;48.50;;;;;0.63;69.84;101255.09;5128895;27;45266;-80
2024/01/14 01:36:50;;;;;;;;;57.75;47.00;;;;;0.73;69.61;101267.28;5119059;27;45945;-79
2024/01/14 01:39:15;;;;;;;;;59.50;47.75;;;;;0.80;69.21;101258.53;5137773;27;45354;-79
2024/01/14 01:41:41;;;;;;;;;57.25;45.25;;;;;0.83;69.12;101248.03;5139742;27;51753;-79
2024/01/14 01:44:06;;;;;;;;;52.33;42.00;;;;;0.80;69.06;101253.28;5140833;27;45211;-79
2024/01/14 01:46:34;;;;;;;;;55.00;42.00;;;;;0.86;69.09;101248.88;5120943;27;45960;-79
2024/01/14 01:48:59;;;;;;;;;55.67;46.00;;;;;0.87;69.19;101244.50;5119467;27;45412;-79
2024/01/14 01:51:25;;;;;;;;;68.25;45.50;;;;;0.93;69.10;101239.25;5137063;27;45392;-80
2024/01/14 01:53:51;;;;;;;;;53.00;39.25;;;;;0.85;67.89;101235.78;5140193;27;45332;-80
2024/01/14 01:56:17;;;;;;;;;50.75;45.75;;;;;0.84;68.75;101239.28;5138718;27;45523;-80
2024/01/14 01:58:42;;;;;;;;;55.50;43.75;;;;;0.83;69.10;101229.69;5139720;27;45510;-80
2024/01/14 02:01:08;;;;;;;;;47.50;42.50;;;;;0.91;68.78;101225.25;5139940;27;45451;-80
2024/01/14 02:03:34;;;;;;;;;63.25;44.00;;;;;0.83;68.28;101203.50;5120582;27;45390;-78
2024/01/14 02:06:00;;;;;;;;;48.25;41.00;;;;;0.87;69.18;101228.78;5118889;27;46073;-80
2024/01/14 02:08:25;;;;;;;;;46.00;38.25;;;;;0.92;68.84;101224.41;5118963;27;45385;-78
2024/01/14 02:10:51;;;;;;;;;53.00;45.50;;;;;0.95;68.79;101213.91;5100681;27;45267;-80
2024/01/14 02:13:17;;;;;;;;;65.25;48.75;;;;;0.86;69.16;101206.97;5100673;27;45418;-79
2024/01/14 02:15:42;;;;;;;;;56.50;40.75;;;;;0.87;69.10;101199.97;5118572;27;46404;-78
2024/01/14 02:18:07;;;;;;;;;36.75;36.25;;;;;0.93;68.98;101213.06;5118815;27;45344;-80
2024/01/14 02:20:32;;;;;;;;;52.75;42.00;;;;;0.91;68.29;101206.94;5099804;27;52409;-80
2024/01/14 02:22:59;;;;;;;;;52.00;39.75;;;;;0.94;68.91;101198.22;5118361;27;57512;-81
2024/01/14 02:25:25;;;;;;;;;59.00;41.25;;;;;1.01;68.56;101200.75;5118765;27;45902;-79
2024/01/14 02:27:50;;;;;;;;;61.50;46.25;;;;;1.03;69.07;101199.00;5135762;27;45313;-80
2024/01/14 02:30:17;;;;;;;;;55.75;45.00;;;;;1.02;68.68;101189.41;5139626;27;45533;-79
2024/01/14 02:32:42;;;;;;;;;49.00;38.75;;;;;1.12;68.46;101183.22;5119040;27;45464;-79
2024/01/14 02:35:08;;;;;;;;;52.75;46.50;;;;;1.12;68.58;101183.22;5117772;27;46156;-79
2024/01/14 02:37:34;;;;;;;;;49.25;37.75;;;;;1.16;68.52;101184.91;5121749;27;45356;-79
2024/01/14 02:40:00;;;;;;;;;48.75;43.25;;;;;1.23;68.32;101184.88;5129358;27;45351;-79
2024/01/14 02:42:25;;;;;;;;;40.75;38.50;;;;;1.17;68.04;101176.22;5118644;27;45646;-78
2024/01/14 02:44:50;;;;;;;;;49.00;44.00;;;;;1.04;67.39;101173.66;5134706;27;46647;-79
2024/01/14 02:47:16;;;;;;;;;45.00;39.50;;;;;1.10;68.51;101171.88;5138994;27;45197;-78
2024/01/14 02:49:41;;;;;;;;;63.75;41.50;;;;;1.15;67.78;101162.22;5138803;27;45202;-78
2024/01/14 02:52:07;;;;;;;;;50.50;43.00;;;;;1.22;67.77;101163.06;5139672;27;45201;-79
2024/01/14 02:54:32;;;;;;;;;56.00;41.25;;;;;1.23;67.37;101163.91;5119614;27;45412;-78
2024/01/14 02:56:58;;;;;;;;;51.75;43.00;;;;;1.19;67.94;101160.47;5133745;27;55122;-79
2024/01/14 02:59:23;;;;;;;;;56.50;43.50;;;;;0.95;67.59;101150.19;5139048;27;45259;-80
2024/01/14 03:01:48;;;;;;;;;57.00;43.00;;;;;0.91;68.05;101146.69;5138807;27;45247;-79
2024/01/14 03:04:14;;;;;;;;;64.25;44.50;;;;;0.88;68.13;101141.50;5138259;27;59218;-78
2024/01/14 03:06:39;;;;;;;;;61.75;42.25;;;;;1.03;67.43;101145.75;5138825;27;45274;-80
2024/01/14 03:09:06;;;;;;;;;57.00;44.00;;;;;0.92;67.78;101143.22;5138934;27;45638;-78
2024/01/14 03:11:34;;;;;;;;;47.50;37.75;;;;;0.79;68.34;101145.06;5119737;27;45758;-80
2024/01/14 03:14:00;;;;;;;;;40.50;36.25;;;;;0.69;68.38;101137.28;5117741;27;45281;-78
2024/01/14 03:16:25;;;;;;;;;45.50;33.25;;;;;0.71;68.62;101133.78;5117468;27;45291;-80
2024/01/14 03:18:50;;;;;;;;;50.75;41.75;;;;;0.80;68.73;101138.09;5117411;27;57064;-79
2024/01/14 03:21:19;;;;;;;;;54.75;45.00;;;;;0.83;68.44;101138.94;5118058;27;45519;-79
2024/01/14 03:23:45;;;;;;;;;53.75;42.50;;;;;0.95;68.06;101147.56;5099239;27;47042;-78
2024/01/14 03:26:10;;;;;;;;;61.50;46.25;;;;;0.79;67.74;101110.16;5117969;27;45957;-78
2024/01/14 03:28:36;;;;;;;;;58.25;42.00;;;;;0.86;68.06;101122.31;5118282;27;45389;-78
2024/01/14 03:31:01;;;;;;;;;49.25;42.25;;;;;0.93;68.23;101144.09;5099195;27;45578;-78
2024/01/14 03:33:26;;;;;;;;;48.75;41.75;;;;;0.83;68.30;101135.44;5126461;27;45318;-79
2024/01/14 03:35:52;;;;;;;;;49.00;37.50;;;;;0.85;67.86;101138.91;5120834;27;70456;-78
2024/01/14 03:38:18;;;;;;;;;54.00;45.50;;;;;0.75;67.83;101126.75;5116429;27;45464;-78
2024/01/14 03:40:43;;;;;;;;;54.75;43.75;;;;;0.69;68.38;101129.44;5117015;27;45422;-77
2024/01/14 03:43:08;;;;;;;;;51.25;43.25;;;;;0.76;68.13;101112.78;5117137;27;46060;-78
2024/01/14 03:45:34;;;;;;;;;46.50;41.25;;;;;0.79;67.99;101125.88;5117053;27;57329;-79
2024/01/14 03:47:59;;;;;;;;;45.00;41.50;;;;;0.77;68.59;101120.63;5116388;27;57562;-78
2024/01/14 03:50:24;;;;;;;;;56.75;42.00;;;;;0.81;68.38;101118.88;5116966;27;45502;-79
2024/01/14 03:52:50;;;;;;;;;46.50;39.50;;;;;0.91;68.11;101115.28;5116809;27;46202;-80
2024/01/14 03:55:15;;;;;;;;;52.25;40.75;;;;;0.94;68.63;101115.28;5128107;27;51250;-79
2024/01/14 03:57:40;;;;;;;;;48.00;40.25;;;;;0.96;67.67;101103.03;5138452;27;45319;-80
2024/01/14 04:00:08;;;;;;;;;46.75;36.00;;;;;0.93;67.98;101096.97;5116785;27;46266;-79
2024/01/14 04:02:33;;;;;;;;;56.50;43.50;;;;;0.97;67.93;101099.53;5098579;27;48255;-79
2024/01/14 04:04:59;;;;;;;;;44.00;35.75;;;;;0.99;67.93;101094.28;5121535;27;63491;-79
2024/01/14 04:07:24;;;;;;;;;49.75;41.50;;;;;1.03;67.58;101083.75;5122298;27;45297;-76
2024/01/14 04:09:49;;;;;;;;;40.50;35.00;;;;;0.92;67.47;101076.91;5116109;27;46783;-78
2024/01/14 04:12:15;;;;;;;;;45.50;33.75;;;;;0.85;67.24;101079.56;5116128;27;46308;-78
2024/01/14 04:14:40;;;;;;;;;55.25;40.25;;;;;0.79;68.17;101074.38;5115864;27;45424;-80
2024/01/14 04:17:05;;;;;;;;;59.25;42.50;;;;;0.74;67.59;101068.28;5117936;27;45515;-80
2024/01/14 04:19:31;;;;;;;;;39.00;34.75;;;;;0.61;67.93;101050.94;5118317;27;45586;-79
2024/01/14 04:21:56;;;;;;;;;48.50;38.25;;;;;0.60;68.41;101059.69;5127776;27;46064;-80
2024/01/14 04:24:21;;;;;;;;;52.50;36.50;;;;;0.56;68.38;101060.59;5126681;27;45478;-79
2024/01/14 04:26:47;;;;;;;;;45.75;37.75;;;;;0.42;68.76;101068.56;5120780;27;45356;-79
2024/01/14 04:29:12;;;;;;;;;53.50;38.75;;;;;0.51;68.73;101063.22;5126413;27;46289;-78
2024/01/14 04:31:38;;;;;;;;;60.00;42.00;;;;;0.53;68.52;101064.13;5126134;27;47524;-79
2024/01/14 04:34:06;;;;;;;;;50.00;38.75;;;;;0.51;68.81;101051.91;5121489;27;45405;-79
2024/01/14 04:36:31;;;;;;;;;50.00;37.75;;;;;0.62;68.64;101070.13;5122170;27;45200;-78
2024/01/14 04:38:56;;;;;;;;;49.75;43.75;;;;;0.69;68.46;101064.00;5120834;27;45437;-77
2024/01/14 04:41:21;;;;;;;;;51.00;43.50;;;;;0.68;67.76;101049.16;5123396;27;46144;-79
2024/01/14 04:43:47;;;;;;;;;49.00;44.75;;;;;0.80;67.70;101059.53;5133125;27;58183;-81
2024/01/14 04:46:12;;;;;;;;;54.50;42.50;;;;;0.87;67.46;101071.69;5140664;27;45487;-80
2024/01/14 04:48:38;;;;;;;;;49.75;41.50;;;;;0.79;67.77;101063.91;5102075;27;45669;-79
2024/01/14 04:51:03;;;;;;;;;52.00;42.25;;;;;0.72;67.83;101066.56;5119788;27;56600;-81
2024/01/14 04:53:29;;;;;;;;;61.75;45.25;;;;;0.52;67.85;101044.06;5138370;27;45411;-80
2024/01/14 04:55:54;;;;;;;;;50.00;40.67;;;;;0.41;68.03;101039.78;5141007;27;45656;-77
2024/01/14 04:58:19;;;;;;;;;49.25;37.00;;;;;0.51;68.47;101058.00;5140729;27;45318;-79
2024/01/14 05:00:45;;;;;;;;;57.50;47.00;;;;;0.52;67.86;101058.88;5119843;27;46418;-81
2024/01/14 05:03:10;;;;;;;;;41.50;31.00;;;;;0.65;67.98;101057.03;5119962;27;45384;-80
2024/01/14 05:05:36;;;;;;;;;45.25;37.25;;;;;0.38;67.80;101035.41;5120042;27;45498;-80
2024/01/14 05:08:01;;;;;;;;;44.00;42.75;;;;;0.49;68.26;101054.53;5120486;27;45398;-82
2024/01/14 05:10:27;;;;;;;;;59.50;44.50;;;;;0.50;68.04;101034.47;5119962;27;46067;-81
2024/01/14 05:12:52;;;;;;;;;55.25;44.00;;;;;0.66;68.17;101051.81;5119910;27;45262;-80
2024/01/14 05:15:20;;;;;;;;;51.75;37.25;;;;;0.72;68.03;101048.25;5119909;27;45475;-79
2024/01/14 05:17:46;;;;;;;;;39.75;39.75;;;;;0.63;68.01;101050.94;5120015;27;45225;-80
2024/01/14 05:20:11;;;;;;;;;69.00;43.75;;;;;0.57;67.92;101038.78;5119653;27;46094;-79
2024/01/14 05:22:37;;;;;;;;;50.00;40.50;;;;;0.63;68.11;101040.47;5101237;27;45269;-78
2024/01/14 05:25:04;;;;;;;;;38.50;33.50;;;;;0.72;67.17;101040.41;5121450;27;45594;-80
2024/01/14 05:27:29;;;;;;;;;46.50;41.25;;;;;0.76;67.29;101031.63;5120201;27;45447;-80
2024/01/14 05:29:55;;;;;;;;;49.00;42.00;;;;;0.73;67.14;101034.28;5102181;27;46227;-80
2024/01/14 05:32:20;;;;;;;;;64.25;48.75;;;;;0.50;68.15;101035.34;5119184;27;45468;-80
2024/01/14 05:34:46;;;;;;;;;60.00;40.50;;;;;0.33;68.36;101028.50;5122975;27;45502;-81
2024/01/14 05:37:12;;;;;;;;;54.50;36.75;;;;;0.35;68.51;101030.22;5119874;27;45460;-81
2024/01/14 05:39:37;;;;;;;;;53.75;42.75;;;;;0.40;68.28;101012.75;5119383;27;46119;-80
2024/01/14 05:42:03;;;;;;;;;36.50;34.25;;;;;0.49;68.11;101023.13;5127167;27;45358;-82
2024/01/14 05:44:30;;;;;;;;;49.25;42.75;;;;;0.22;68.21;100987.59;5138474;27;45564;-79
2024/01/14 05:46:56;;;;;;;;;56.75;40.75;;;;;0.10;68.34;100965.88;5136757;27;45441;-79
2024/01/14 05:49:21;;;;;;;;;55.50;43.50;;;;;0.40;68.33;101023.22;5119261;27;46407;-81
2024/01/14 05:51:47;;;;;;;;;63.33;45.33;;;;;0.35;68.42;100982.25;5119368;27;45325;-79
2024/01/14 05:54:13;;;;;;;;;59.50;42.75;;;;;0.69;67.78;101011.63;5100867;27;45262;-78
2024/01/14 05:56:38;;;;;;;;;58.00;43.50;;;;;0.82;67.17;101036.81;5100921;27;45351;-79
2024/01/14 05:59:03;;;;;;;;;57.00;43.25;;;;;0.75;67.30;101015.06;5121894;27;45210;-79
2024/01/14 06:01:29;;;;;;;;;59.00;43.25;;;;;0.72;66.71;101019.47;5117074;27;45443;-77
2024/01/14 06:03:55;;;;;;;;;58.25;40.25;;;;;0.66;67.26;101036.09;5119154;27;45445;-79
2024/01/14 06:06:20;;;;;;;;;62.75;43.75;;;;;0.73;67.51;101036.91;5119615;27;45483;-79
2024/01/14 06:08:46;;;;;;;;;53.75;45.00;;;;;0.81;67.41;101025.47;5118372;27;59587;-78
2024/01/14 06:11:13;;;;;;;;;52.00;40.50;;;;;0.95;67.15;101027.97;5119059;27;45357;-80
2024/01/14 06:13:39;;;;;;;;;51.50;46.00;;;;;0.97;66.34;101031.44;5119151;27;45374;-78
2024/01/14 06:16:04;;;;;;;;;54.00;45.25;;;;;0.77;67.35;101028.13;5119469;27;45337;-78
2024/01/14 06:18:30;;;;;;;;;55.25;45.25;;;;;0.73;68.05;101021.19;5119546;27;45915;-78
2024/01/14 06:21:01;;;;;;;;;62.50;48.00;;;;;0.74;68.06;101022.94;5118814;27;45191;-80
2024/01/14 06:23:28;;;;;;;;;57.50;44.50;;;;;0.70;68.18;101027.31;5100455;27;45289;-77
2024/01/14 06:25:53;;;;;;;;;54.75;42.75;;;;;0.72;67.78;101024.69;5100461;27;45536;-80
2024/01/14 06:28:19;;;;;;;;;66.33;47.00;;;;;0.74;67.70;101026.41;5118916;27;45358;-81
2024/01/14 06:30:44;;;;;;;;;65.00;43.33;;;;;0.77;68.05;101021.13;5118864;27;45329;-78
2024/01/14 06:33:10;;;;;;;;;54.75;40.00;;;;;0.75;67.77;101024.66;5100250;27;45359;-80
2024/01/14 06:35:36;;;;;;;;;59.33;45.67;;;;;0.72;68.16;101017.72;5122107;27;45713;-80
2024/01/14 06:38:01;;;;;;;;;50.00;41.00;;;;;0.80;67.42;101033.34;5139202;27;46850;-79
2024/01/14 06:40:27;;;;;;;;;57.50;42.50;;;;;0.84;67.22;101024.59;5138940;27;45259;-78
2024/01/14 06:42:52;;;;;;;;;49.25;37.50;;;;;0.76;68.29;101026.38;5127151;27;45338;-77
2024/01/14 06:45:18;;;;;;;;;58.75;44.50;;;;;0.72;67.45;101014.22;5117607;27;45330;-79
2024/01/14 06:47:43;;;;;;;;;62.75;46.25;;;;;0.85;68.02;101028.94;5117614;27;45458;-79
2024/01/14 06:50:10;;;;;;;;;46.00;35.50;;;;;0.82;67.28;101019.38;5124560;27;45304;-79
2024/01/14 06:52:36;;;;;;;;;52.25;42.75;;;;;0.73;67.87;101027.28;5099418;27;45272;-78
2024/01/14 06:55:04;;;;;;;;;47.00;37.25;;;;;0.62;67.90;101023.03;5130345;27;45686;-79
2024/01/14 06:57:30;;;;;;;;;45.75;40.75;;;;;0.59;68.16;101023.94;5118159;27;46233;-79
2024/01/14 06:59:55;;;;;;;;;41.00;39.25;;;;;0.59;68.37;101011.72;5129659;27;45273;-78
2024/01/14 07:02:20;;;;;;;;;56.50;48.75;;;;;0.62;67.64;101015.19;5139251;27;45413;-78
2024/01/14 07:04:48;;;;;;;;;42.50;36.25;;;;;0.64;68.34;101018.66;5138694;27;45301;-79
2024/01/14 07:07:13;;;;;;;;;47.25;34.00;;;;;0.54;68.39;101017.88;5137701;27;72405;-78
2024/01/14 07:09:39;;;;;;;;;48.75;41.50;;;;;0.64;68.30;101022.13;5117568;27;64251;-81
2024/01/14 07:12:04;;;;;;;;;61.25;45.50;;;;;0.56;68.61;101011.75;5128698;27;56763;-79
2024/01/14 07:14:30;;;;;;;;;44.50;40.50;;;;;0.53;68.21;101010.91;5139039;27;45537;-77
2024/01/14 07:16:55;;;;;;;;;61.25;45.50;;;;;0.53;68.13;101014.41;5138195;27;57399;-80
2024/01/14 07:19:21;;;;;;;;;45.25;38.50;;;;;0.54;68.49;101016.13;5138925;27;45402;-82
2024/01/14 07:21:46;;;;;;;;;57.25;46.75;;;;;0.57;68.52;101010.00;5138292;27;45368;-80
2024/01/14 07:24:12;;;;;;;;;46.00;43.75;;;;;0.44;69.08;101013.59;5120248;27;45678;-81
2024/01/14 07:26:38;;;;;;;;;45.75;38.50;;;;;0.39;69.18;101011.03;5118211;27;46205;-81
2024/01/14 07:29:03;;;;;;;;;49.00;42.75;;;;;0.38;68.96;101003.16;5117070;27;59149;-81
2024/01/14 07:31:30;;;;;;;;;47.50;34.00;;;;;0.31;69.24;100994.50;5117782;27;45329;-79
2024/01/14 07:33:55;;;;;;;;;56.75;42.00;;;;;0.20;69.58;100994.56;5118304;27;45229;-81
2024/01/14 07:36:21;;;;;;;;;68.33;45.33;;;;;0.27;69.33;101000.66;5117582;27;45932;-78
2024/01/14 07:38:46;;;;;;;;;61.00;38.67;;;;;0.30;69.40;101011.09;5117579;27;45193;-81
2024/01/14 07:41:13;;;;;;;;;47.33;44.00;;;;;0.34;69.01;101007.56;5117668;27;45216;-82
2024/01/14 07:43:41;;;;;;;;;60.00;46.33;;;;;0.37;68.40;101010.13;5118241;27;45558;-81
2024/01/14 07:46:07;;;;;;;;;45.00;42.67;;;;;0.27;69.15;101001.53;5117587;27;45479;-81
2024/01/14 07:48:33;;;;;;;;;68.00;45.00;;;;;0.37;68.44;101006.66;5109977;27;45402;-79
2024/01/14 07:50:59;;;;;;;;;58.00;44.33;;;;;0.34;68.37;101012.78;5119537;27;45458;-79
2024/01/14 07:53:24;;;;;;;;;48.67;43.00;;;;;0.35;68.96;101009.28;5133447;27;45286;-78
2024/01/14 07:55:49;;;;;;;;;51.00;45.33;;;;;0.36;68.69;101016.25;5127800;27;45585;-78
2024/01/14 07:58:15;;;;;;;;;53.67;44.33;;;;;0.51;68.96;101015.25;5116751;27;45298;-79
2024/01/14 08:00:41;;;;;;;;;41.00;29.67;;;;;0.53;67.77;101016.16;5117752;27;45191;-79
2024/01/14 08:03:06;;;;;;;;;51.50;39.25;;;;;0.48;68.19;101005.69;5126570;27;45499;-79
2024/01/14 08:05:32;;;;;;;;;55.67;45.33;;;;;0.49;67.95;101007.44;5118078;27;45330;-80
2024/01/14 08:07:57;;;;;;;;;57.75;41.50;;;;;0.59;67.34;101019.56;5130556;27;45337;-80
2024/01/14 08:10:22;;;;;;;;;59.00;46.50;;;;;0.58;67.54;101017.81;5116629;27;51730;-79
2024/01/14 08:12:48;;;;;;;;;50.50;42.50;;;;;0.51;68.00;101010.91;5112118;27;45584;-80
2024/01/14 08:15:14;;;;;;;;;51.00;43.25;;;;;0.44;68.04;101004.00;5137681;27;45202;-79
2024/01/14 08:17:40;;;;;;;;;48.50;42.50;;;;;0.65;68.38;101028.22;5117486;27;45387;-78
2024/01/14 08:20:08;;;;;;;;;58.25;43.50;;;;;0.75;67.38;101016.81;5134907;27;45446;-81
2024/01/14 08:22:33;;;;;;;;;65.50;46.50;;;;;0.73;67.58;101022.06;5137862;27;45643;-79
2024/01/14 08:24:58;;;;;;;;;70.00;48.75;;;;;0.66;67.14;101019.53;5137748;27;46097;-79
2024/01/14 08:27:24;;;;;;;;;58.50;41.25;;;;;0.57;67.62;101016.09;5137678;27;45376;-81
2024/01/14 08:29:49;;;;;;;;;50.50;44.25;;;;;0.62;67.23;101017.78;5137966;27;45428;-79
2024/01/14 08:32:15;;;;;;;;;61.50;44.50;;;;;0.63;67.24;101022.16;5138153;27;45458;-77
2024/01/14 08:34:40;;;;;;;;;58.25;44.25;;;;;0.73;67.07;101016.81;5117582;27;45366;-78
2024/01/14 08:37:05;;;;;;;;;56.25;46.50;;;;;0.63;66.86;101009.91;5116806;27;45203;-79
2024/01/14 08:39:31;;;;;;;;;56.00;42.75;;;;;0.64;67.28;101011.66;5117213;27;45230;-79
2024/01/14 08:41:58;;;;;;;;;28.25;15.50;;;;;0.61;67.58;101010.81;5119693;27;45223;-80
2024/01/14 08:44:24;;;;;;;;;55.00;43.00;;;;;0.62;67.13;101007.31;5116038;27;46101;-79
2024/01/14 08:46:49;;;;;;;;;52.75;45.00;;;;;0.81;66.88;101016.75;5127642;27;55805;-80
2024/01/14 08:49:15;;;;;;;;;62.50;46.00;;;;;0.95;66.78;101016.63;5116899;27;45304;-80
2024/01/14 08:51:40;;;;;;;;;48.75;41.00;;;;;0.99;66.20;101008.72;5117377;27;45394;-78
2024/01/14 08:54:06;;;;;;;;;51.75;42.75;;;;;0.96;66.29;101014.00;5116412;27;46081;-78
2024/01/14 08:56:32;;;;;;;;;51.75;46.75;;;;;0.86;66.34;100989.63;5117014;27;45827;-79
2024/01/14 08:58:57;;;;;;;;;51.50;41.75;;;;;0.98;66.56;101009.59;5116795;27;45504;-79
2024/01/14 09:01:23;;;;;;;;;51.75;41.50;;;;;1.06;66.02;100999.06;5119613;27;45381;-80
2024/01/14 09:03:49;;;;;;;;;44.50;42.50;;;;;1.01;65.92;100986.00;5137369;27;45363;-79
2024/01/14 09:06:15;;;;;;;;;65.75;48.50;;;;;1.11;65.14;100987.63;5140333;27;45514;-79
2024/01/14 09:08:40;;;;;;;;;68.50;47.00;;;;;1.11;65.49;100982.41;5130626;27;45307;-79
2024/01/14 09:11:07;;;;;;;;;51.00;37.00;;;;;1.07;65.97;100965.00;5136807;27;45613;-80
2024/01/14 09:13:32;;;;;;;;;50.25;43.75;;;;;1.18;65.34;100977.97;5126131;27;45227;-80
2024/01/14 09:15:57;;;;;;;;;47.50;44.00;;;;;1.14;65.48;100971.88;5125255;27;45448;-81
2024/01/14 09:18:23;;;;;;;;;57.25;42.50;;;;;1.16;65.98;100964.00;5124523;27;56902;-81
2024/01/14 09:20:49;;;;;;;;;60.25;47.25;;;;;1.28;65.77;100968.22;5125603;27;45247;-82
2024/01/14 09:23:15;;;;;;;;;64.00;43.00;;;;;1.27;64.95;100966.50;5127944;27;46099;-80
2024/01/14 09:25:40;;;;;;;;;50.50;46.25;;;;;1.27;65.94;100969.13;5125710;27;45567;-80
2024/01/14 09:28:06;;;;;;;;;60.00;43.25;;;;;1.32;65.24;100969.94;5129467;27;45279;-80
2024/01/14 09:30:31;;;;;;;;;53.50;37.50;;;;;1.41;66.02;100967.19;5139941;27;45471;-81
2024/01/14 09:32:57;;;;;;;;;64.25;46.00;;;;;1.50;65.19;100960.97;5139838;27;59699;-81
2024/01/14 09:35:22;;;;;;;;;62.25;48.00;;;;;1.51;64.84;100958.31;5129500;27;45450;-80
2024/01/14 09:37:47;;;;;;;;;54.25;42.75;;;;;1.38;64.62;100941.91;5128450;27;45532;-84
2024/01/14 09:40:16;;;;;;;;;56.50;44.75;;;;;1.53;65.32;100953.94;5131066;27;54889;-82
2024/01/14 09:42:44;;;;;;;;;55.25;46.50;;;;;1.55;64.52;100962.63;5131137;27;45515;-81
2024/01/14 09:45:10;;;;;;;;;42.50;37.50;;;;;1.46;64.75;100949.66;5128316;27;45449;-81
2024/01/14 09:47:36;;;;;;;;;49.00;34.50;;;;;1.43;64.74;100950.59;5124438;27;45557;-81
2024/01/14 09:50:02;;;;;;;;;61.25;46.50;;;;;1.43;65.04;100957.56;5126472;27;45447;-81
2024/01/14 09:52:30;;;;;;;;;48.25;42.75;;;;;1.45;64.75;100951.44;5124771;27;46215;-81
2024/01/14 09:54:56;;;;;;;;;48.50;37.00;;;;;1.37;64.71;100944.53;5125124;27;45502;-82
2024/01/14 09:57:24;;;;;;;;;61.33;48.00;;;;;1.44;64.74;100951.44;5128271;27;45386;-81
2024/01/14 09:59:53;;;;;;;;;55.25;43.50;;;;;1.54;65.18;100955.66;5136768;27;45291;-80
2024/01/14 10:02:19;;;;;;;;;52.25;44.50;;;;;1.55;64.90;100952.16;5135450;27;46333;-80
2024/01/14 10:04:45;;;;;;;;;63.00;48.25;;;;;1.60;64.50;100960.84;5120442;27;45559;-79
2024/01/14 10:07:11;;;;;;;;;58.00;42.25;;;;;1.53;65.25;100953.06;5139455;27;45279;-79
2024/01/14 10:09:39;;;;;;;;;65.75;46.00;;;;;1.61;65.00;100945.97;5140885;27;45618;-78
2024/01/14 10:12:07;;;;;;;;;57.00;43.00;;;;;1.70;64.58;100946.72;5121137;27;45221;-83
2024/01/14 10:14:34;;;;;;;;;62.25;48.00;;;;;1.77;64.78;100948.34;5121749;27;45494;-79
2024/01/14 10:16:59;;;;;;;;;56.25;46.75;;;;;1.81;64.20;100946.53;5118252;27;45381;-82
2024/01/14 10:19:25;;;;;;;;;48.75;42.50;;;;;1.82;64.27;100934.28;5119233;27;45590;-83
2024/01/14 10:21:55;;;;;;;;;68.50;50.00;;;;;1.88;63.90;100944.72;5118586;27;45502;-81
2024/01/14 10:24:21;;;;;;;;;64.50;47.25;;;;;1.96;64.28;100934.97;5118875;27;45487;-79
2024/01/14 10:26:52;;;;;;;;;69.25;46.00;;;;;2.05;63.98;100934.81;5118858;27;45451;-81
2024/01/14 10:29:17;;;;;;;;;72.00;49.25;;;;;2.09;63.54;100936.53;5123126;27;45453;-80
2024/01/14 10:31:43;;;;;;;;;71.25;54.25;;;;;2.03;63.48;100933.97;5134786;27;66326;-81
2024/01/14 10:34:08;;;;;;;;;66.50;52.00;;;;;1.93;63.46;100927.13;5137795;27;45271;-80
2024/01/14 10:36:34;;;;;;;;;52.00;39.25;;;;;1.91;63.96;100924.53;5139701;27;45564;-79
2024/01/14 10:38:59;;;;;;;;;68.67;54.00;;;;;1.99;64.06;100921.81;5139654;27;45179;-80
2024/01/14 10:41:25;;;;;;;;;73.50;54.00;;;;;2.02;63.45;100921.75;5138980;27;46067;-76
2024/01/14 10:43:52;;;;;;;;;57.25;42.25;;;;;1.91;63.56;100907.94;5141226;27;45460;-80
2024/01/14 10:46:17;;;;;;;;;59.00;46.50;;;;;1.89;63.74;100910.59;5139392;27;45365;-80
2024/01/14 10:48:49;;;;;;;;;69.50;48.50;;;;;2.04;63.86;100909.47;5136028;27;45599;-78
2024/01/14 10:51:16;;;;;;;;;74.00;48.00;;;;;2.13;63.16;100898.84;5124600;27;45314;-79
2024/01/14 10:54:08;;;;;;;;;68.00;50.25;;;;;2.04;63.32;100896.38;5139021;27;45487;-81
2024/01/14 10:56:39;;;;;;;;;69.75;47.75;;;;;2.08;63.20;100892.78;5120535;27;45842;-80
2024/01/14 10:59:08;;;;;;;;;69.75;44.25;;;;;2.05;63.01;100884.97;5139446;27;45339;-81
2024/01/14 11:01:41;;;;;;;;;64.50;50.50;;;;;1.94;62.64;100892.16;5138708;27;46341;-82
2024/01/14 11:04:07;;;;;;;;;69.25;53.25;;;;;1.91;62.90;100889.59;5139054;27;45278;-82
2024/01/14 11:06:34;;;;;;;;;70.33;55.33;;;;;1.99;62.82;100890.34;5128162;27;45237;-80
2024/01/14 11:09:00;;;;;;;;;71.50;50.50;;;;;2.10;62.52;100867.41;5118238;27;46171;-80
2024/01/14 11:11:41;;;;;;;;;71.67;53.33;;;;;2.05;62.98;100861.38;5117700;27;45455;-81